Time;durP1;ratioP1;P1;durP2;ratioP2;P2;SDS_P1;SDS_P2;PMS_P1;PMS_P2;Temp;Humidity;BMP_temperature;BMP_pressure;BME280_temperature;BME280_humidity;BME280_pressure;Samples;Min_cycle;Max_cycle;Signal;HPM_P1;HPM_P2
2022/08/07 00:01:06;;;;;;;1.47;0.50;;;19.70;99.90;;;;;;5137979;27;20439;-73
2022/08/07 00:03:35;;;;;;;0.70;0.40;;;19.70;99.90;;;;;;5137701;27;20456;-73
2022/08/07 00:06:03;;;;;;;0.70;0.40;;;19.70;99.90;;;;;;5137445;27;20436;-72
2022/08/07 00:08:30;;;;;;;0.63;0.30;;;19.70;99.90;;;;;;5137393;27;20861;-72
2022/08/07 00:10:57;;;;;;;0.50;0.30;;;19.80;99.90;;;;;;5137860;27;20946;-72
2022/08/07 00:13:24;;;;;;;0.50;0.30;;;19.70;99.90;;;;;;5137356;27;20483;-72
2022/08/07 00:15:51;;;;;;;0.70;0.30;;;19.80;99.90;;;;;;5137322;27;21001;-72
2022/08/07 00:18:21;;;;;;;0.50;0.30;;;19.90;99.90;;;;;;5137722;27;20480;-73
2022/08/07 00:20:50;;;;;;;0.47;0.30;;;20.00;99.90;;;;;;5137372;27;20479;-73
2022/08/07 00:23:17;;;;;;;0.50;0.30;;;20.00;99.90;;;;;;5136819;27;20448;-73
2022/08/07 00:25:44;;;;;;;2.50;0.30;;;19.90;99.90;;;;;;5137275;27;20482;-72
2022/08/07 00:28:11;;;;;;;0.50;0.30;;;19.60;99.90;;;;;;5137323;27;20455;-73
2022/08/07 00:30:38;;;;;;;0.50;0.30;;;19.40;99.90;;;;;;5137364;27;20535;-72
2022/08/07 00:33:05;;;;;;;0.40;0.20;;;19.40;99.90;;;;;;5136872;27;20482;-72
2022/08/07 00:35:32;;;;;;;0.50;0.30;;;19.50;99.90;;;;;;5137003;27;20515;-72
2022/08/07 00:38:01;;;;;;;0.93;0.40;;;19.60;99.90;;;;;;5136869;27;20487;-72
2022/08/07 00:40:29;;;;;;;0.60;0.30;;;19.70;99.90;;;;;;5137224;28;20519;-72
2022/08/07 00:42:56;;;;;;;0.40;0.20;;;19.60;99.90;;;;;;5137497;28;20813;-72
2022/08/07 00:45:23;;;;;;;0.43;0.30;;;19.70;99.90;;;;;;5137022;28;20439;-73
2022/08/07 00:47:50;;;;;;;0.40;0.30;;;19.80;99.90;;;;;;5137359;28;20501;-72
2022/08/07 00:50:18;;;;;;;0.60;0.30;;;19.80;99.90;;;;;;5136840;28;20478;-72
2022/08/07 00:52:45;;;;;;;0.47;0.30;;;19.70;99.90;;;;;;5137280;28;20484;-72
2022/08/07 00:55:13;;;;;;;0.50;0.30;;;19.70;99.90;;;;;;5137218;28;20518;-72
2022/08/07 00:57:40;;;;;;;0.40;0.30;;;19.50;99.90;;;;;;5137046;28;20551;-72
2022/08/07 01:00:08;;;;;;;0.50;0.30;;;19.60;99.90;;;;;;5137217;28;20486;-73
2022/08/07 01:02:35;;;;;;;0.60;0.40;;;19.70;99.90;;;;;;5137088;28;20459;-73
2022/08/07 01:05:05;;;;;;;0.80;0.30;;;19.80;99.90;;;;;;5137103;28;20439;-72
2022/08/07 01:07:32;;;;;;;1.07;0.40;;;19.70;99.90;;;;;;5137292;28;20451;-72
2022/08/07 01:09:59;;;;;;;0.40;0.30;;;19.80;99.90;;;;;;5136628;28;20535;-72
2022/08/07 01:12:28;;;;;;;1.50;0.30;;;19.80;99.90;;;;;;5136933;28;20529;-72
2022/08/07 01:14:57;;;;;;;0.40;0.30;;;19.80;99.90;;;;;;5136997;28;20479;-72
2022/08/07 01:17:24;;;;;;;0.50;0.30;;;19.90;99.90;;;;;;5137154;28;20728;-72
2022/08/07 01:19:53;;;;;;;1.90;0.30;;;19.90;99.90;;;;;;5136347;28;20448;-72
2022/08/07 01:22:22;;;;;;;0.50;0.30;;;19.70;99.90;;;;;;5136823;28;20491;-72
2022/08/07 01:24:49;;;;;;;0.50;0.40;;;19.50;99.90;;;;;;5136672;28;20582;-73
2022/08/07 01:27:16;;;;;;;0.60;0.30;;;19.30;99.90;;;;;;5136599;28;20818;-73
2022/08/07 01:29:43;;;;;;;0.60;0.40;;;19.20;99.90;;;;;;5136462;28;20444;-72
2022/08/07 01:32:10;;;;;;;0.77;0.50;;;19.20;99.90;;;;;;5136537;28;20578;-72
2022/08/07 01:34:43;;;;;;;0.57;0.37;;;19.10;99.90;;;;;;5137736;27;20482;-73
2022/08/07 01:37:11;;;;;;;0.90;0.60;;;19.10;99.90;;;;;;5140857;27;20770;-72
2022/08/07 01:39:39;;;;;;;1.00;0.40;;;19.00;99.90;;;;;;5140306;27;20458;-73
2022/08/07 01:42:06;;;;;;;0.50;0.40;;;18.90;99.90;;;;;;5140247;27;20471;-72
2022/08/07 01:44:33;;;;;;;0.70;0.40;;;18.90;99.90;;;;;;5140722;27;20480;-72
2022/08/07 01:47:00;;;;;;;0.53;0.30;;;18.90;99.90;;;;;;5140513;27;20486;-73
2022/08/07 01:49:27;;;;;;;0.40;0.30;;;18.90;99.90;;;;;;5140575;27;20448;-73
2022/08/07 01:51:56;;;;;;;0.50;0.30;;;18.80;99.90;;;;;;5140724;27;20479;-72
2022/08/07 01:54:24;;;;;;;1.00;0.40;;;18.80;99.90;;;;;;5140395;27;20833;-72
2022/08/07 01:56:56;;;;;;;0.50;0.30;;;18.80;99.90;;;;;;5140094;27;20980;-73
2022/08/07 01:59:26;;;;;;;0.50;0.30;;;18.90;99.90;;;;;;5140504;27;20448;-73
2022/08/07 02:02:02;;;;;;;0.60;0.30;;;19.00;99.90;;;;;;5140604;27;21187;-73
2022/08/07 02:04:35;;;;;;;0.80;0.40;;;18.90;99.90;;;;;;5141055;27;20451;-73
2022/08/07 02:07:04;;;;;;;0.50;0.30;;;18.90;99.90;;;;;;5140602;27;20459;-73
2022/08/07 02:09:32;;;;;;;0.60;0.37;;;18.70;99.90;;;;;;5140915;27;20482;-72
2022/08/07 02:12:15;;;;;;;0.50;0.30;;;18.60;99.90;;;;;;5140132;27;20535;-73
2022/08/07 02:14:44;;;;;;;0.63;0.30;;;18.60;99.90;;;;;;5140407;27;20531;-72
2022/08/07 02:17:14;;;;;;;0.50;0.30;;;18.60;99.90;;;;;;5139738;27;20515;-72
2022/08/07 02:19:44;;;;;;;1.10;0.40;;;18.60;99.90;;;;;;5139826;27;20532;-73
2022/08/07 02:22:13;;;;;;;0.50;0.30;;;18.60;99.90;;;;;;5139766;27;20424;-73
2022/08/07 02:24:42;;;;;;;0.70;0.40;;;18.60;99.90;;;;;;5139458;27;20513;-72
2022/08/07 02:27:12;;;;;;;0.50;0.30;;;18.60;99.90;;;;;;5137920;27;20444;-72
2022/08/07 02:29:41;;;;;;;0.70;0.40;;;18.60;99.90;;;;;;5139768;27;20915;-72
2022/08/07 02:32:10;;;;;;;0.70;0.30;;;18.60;99.90;;;;;;5139070;27;20479;-72
2022/08/07 02:34:38;;;;;;;0.80;0.40;;;18.60;1.00;;;;;;5139973;27;20443;-72
2022/08/07 02:37:07;;;;;;;0.50;0.30;;;18.50;1.00;;;;;;5138896;27;20524;-72
2022/08/07 02:39:35;;;;;;;0.60;0.40;;;18.50;1.00;;;;;;5139693;27;20443;-73
2022/08/07 02:42:03;;;;;;;0.50;0.30;;;18.40;1.00;;;;;;5139885;27;20450;-73
2022/08/07 02:44:32;;;;;;;0.53;0.37;;;18.40;1.00;;;;;;5139565;27;20486;-73
2022/08/07 02:47:01;;;;;;;0.50;0.40;;;18.40;1.00;;;;;;5138634;27;20486;-72
2022/08/07 02:49:29;;;;;;;0.47;0.30;;;18.40;1.00;;;;;;5139056;27;20480;-72
2022/08/07 02:51:58;;;;;;;0.40;0.30;;;18.40;1.00;;;;;;5139429;27;20535;-73
2022/08/07 02:54:29;;;;;;;0.50;0.30;;;18.40;1.00;;;;;;5139052;27;20464;-73
2022/08/07 02:56:59;;;;;;;0.50;0.40;;;18.30;1.00;;;;;;5139095;27;20532;-72
2022/08/07 02:59:28;;;;;;;0.50;0.30;;;18.30;1.00;;;;;;5138969;27;20542;-73
2022/08/07 03:01:59;;;;;;;0.50;0.30;;;18.30;1.00;;;;;;5139256;27;20483;-73
2022/08/07 03:04:28;;;;;;;0.50;0.30;;;18.20;1.00;;;;;;5138658;27;20871;-73
2022/08/07 03:06:56;;;;;;;0.70;0.30;;;18.20;1.00;;;;;;5139256;27;20444;-72
2022/08/07 03:09:23;;;;;;;0.50;0.30;;;18.00;1.00;;;;;;5139234;27;20482;-73
2022/08/07 03:11:53;;;;;;;0.63;0.43;;;18.10;1.00;;;;;;5138510;27;20994;-73
2022/08/07 03:14:21;;;;;;;0.60;0.50;;;18.00;1.00;;;;;;5138875;27;20926;-73
2022/08/07 03:16:48;;;;;;;4.53;0.40;;;17.80;1.00;;;;;;5138991;27;20526;-72
2022/08/07 03:19:17;;;;;;;0.53;0.33;;;17.70;1.00;;;;;;5138796;27;20546;-72
2022/08/07 03:21:44;;;;;;;0.53;0.37;;;17.60;1.00;;;;;;5138597;27;20825;-72
2022/08/07 03:24:11;;;;;;;0.50;0.37;;;17.50;1.00;;;;;;5138634;27;20493;-72
2022/08/07 03:26:39;;;;;;;0.60;0.40;;;17.40;1.00;;;;;;5138269;27;20918;-72
2022/08/07 03:29:07;;;;;;;0.37;0.30;;;17.50;1.00;;;;;;5138216;27;20451;-73
2022/08/07 03:31:36;;;;;;;0.50;0.30;;;17.60;1.00;;;;;;5138107;27;20450;-72
2022/08/07 03:34:06;;;;;;;0.53;0.30;;;17.60;1.00;;;;;;5138510;27;20776;-73
2022/08/07 03:36:36;;;;;;;0.50;0.30;;;17.60;1.00;;;;;;5138578;27;20772;-72
2022/08/07 03:39:05;;;;;;;0.50;0.37;;;17.60;1.00;;;;;;5138005;27;20460;-72
2022/08/07 03:41:33;;;;;;;0.70;0.50;;;17.50;1.00;;;;;;5138572;27;20447;-73
2022/08/07 03:44:01;;;;;;;0.57;0.30;;;17.50;1.00;;;;;;5137960;27;20452;-73
2022/08/07 03:46:29;;;;;;;1.37;0.30;;;17.40;1.00;;;;;;5137882;27;20509;-72
2022/08/07 03:48:56;;;;;;;0.67;0.40;;;17.40;1.00;;;;;;5137986;27;20933;-72
2022/08/07 03:51:24;;;;;;;0.50;0.30;;;17.50;1.00;;;;;;5138074;27;20475;-73
2022/08/07 03:53:52;;;;;;;0.43;0.30;;;17.50;1.00;;;;;;5137847;27;20456;-73
2022/08/07 03:56:22;;;;;;;0.67;0.40;;;17.50;1.00;;;;;;5138060;27;20476;-73
2022/08/07 03:58:50;;;;;;;0.60;0.30;;;17.60;1.00;;;;;;5137351;27;20495;-73
2022/08/07 04:01:19;;;;;;;0.67;0.30;;;17.60;1.00;;;;;;5136382;27;20508;-72
2022/08/07 04:03:46;;;;;;;0.93;0.40;;;17.60;1.00;;;;;;5136356;27;20483;-73
2022/08/07 04:06:13;;;;;;;0.50;0.40;;;17.60;1.00;;;;;;5136153;27;20480;-72
2022/08/07 04:08:41;;;;;;;0.50;0.30;;;17.70;1.00;;;;;;5136329;27;20898;-72
2022/08/07 04:11:11;;;;;;;0.50;0.30;;;17.90;1.00;;;;;;5136522;27;20443;-73
2022/08/07 04:13:39;;;;;;;0.60;0.40;;;17.90;1.00;;;;;;5136294;27;20583;-73
2022/08/07 04:16:06;;;;;;;0.40;0.30;;;18.00;1.00;;;;;;5137125;27;20519;-72
2022/08/07 04:18:33;;;;;;;0.50;0.30;;;17.90;1.00;;;;;;5137256;27;20455;-73
2022/08/07 04:21:01;;;;;;;0.50;0.30;;;17.90;1.00;;;;;;5137282;27;20444;-73
2022/08/07 04:23:28;;;;;;;0.70;0.30;;;18.00;1.00;;;;;;5137380;27;20894;-72
2022/08/07 04:25:55;;;;;;;0.53;0.30;;;18.00;1.00;;;;;;5137427;27;20868;-72
2022/08/07 04:28:24;;;;;;;0.67;0.40;;;18.20;1.00;;;;;;5137722;27;20451;-72
2022/08/07 04:30:51;;;;;;;0.67;0.40;;;18.30;1.00;;;;;;5137524;27;20421;-72
2022/08/07 04:33:19;;;;;;;1.70;0.37;;;18.20;1.00;;;;;;5137039;27;20971;-72
2022/08/07 04:35:47;;;;;;;1.80;0.40;;;18.10;1.00;;;;;;5137399;27;20501;-73
2022/08/07 04:38:15;;;;;;;0.57;0.37;;;18.00;1.00;;;;;;5137068;27;20452;-73
2022/08/07 04:40:44;;;;;;;0.43;0.40;;;17.80;1.00;;;;;;5137437;28;20898;-73
2022/08/07 04:43:17;;;;;;;0.50;0.33;;;17.80;1.00;;;;;;5137420;28;20512;-72
2022/08/07 04:45:55;;;;;;;0.60;0.40;;;17.70;1.00;;;;;;5132843;28;20514;-73
2022/08/07 04:48:30;;;;;;;0.50;0.30;;;17.70;1.00;;;;;;5137427;28;20556;-72
2022/08/07 04:51:05;;;;;;;0.50;0.30;;;17.70;1.00;;;;;;5137650;28;20490;-72
2022/08/07 04:53:38;;;;;;;0.60;0.40;;;17.60;1.00;;;;;;5137488;28;20535;-73
2022/08/07 04:56:14;;;;;;;0.47;0.30;;;17.70;1.00;;;;;;5136876;28;20897;-72
2022/08/07 04:58:46;;;;;;;0.50;0.33;;;17.70;1.00;;;;;;5135537;28;20746;-72
2022/08/07 05:01:20;;;;;;;0.50;0.30;;;17.80;1.00;;;;;;5136673;28;20483;-73
2022/08/07 05:03:56;;;;;;;0.50;0.40;;;17.80;1.00;;;;;;5135907;28;20510;-73
2022/08/07 05:06:25;;;;;;;1.13;0.40;;;17.90;1.00;;;;;;5136043;28;20455;-73
2022/08/07 05:09:01;;;;;;;1.17;0.47;;;18.10;1.00;;;;;;5135305;27;20902;-72
2022/08/07 05:11:31;;;;;;;0.60;0.33;;;18.10;1.00;;;;;;5139689;27;20534;-73
2022/08/07 05:14:03;;;;;;;0.40;0.30;;;18.30;1.00;;;;;;5140477;27;20568;-73
2022/08/07 05:16:35;;;;;;;0.90;0.40;;;18.30;1.00;;;;;;5141230;27;21054;-72
2022/08/07 05:19:20;;;;;;;0.60;0.40;;;18.40;1.00;;;;;;5142452;27;20491;-72
2022/08/07 05:21:50;;;;;;;0.60;0.30;;;18.50;1.00;;;;;;5143007;27;20894;-72
2022/08/07 05:24:19;;;;;;;0.60;0.40;;;18.50;1.00;;;;;;5143894;27;20500;-72
2022/08/07 05:26:49;;;;;;;0.70;0.50;;;18.60;1.00;;;;;;5144420;27;20755;-72
2022/08/07 05:29:20;;;;;;;0.60;0.50;;;18.60;1.00;;;;;;5143773;27;20455;-73
2022/08/07 05:31:49;;;;;;;0.70;0.43;;;18.30;1.00;;;;;;5142485;27;20562;-73
2022/08/07 05:34:17;;;;;;;0.80;0.50;;;18.30;1.00;;;;;;5141767;27;20532;-72
2022/08/07 05:36:46;;;;;;;0.80;0.53;;;18.40;1.00;;;;;;5141611;27;20502;-73
2022/08/07 05:39:17;;;;;;;0.70;0.50;;;18.40;1.00;;;;;;5141015;27;20486;-72
2022/08/07 05:41:46;;;;;;;0.60;0.40;;;18.40;1.00;;;;;;5140242;27;20530;-73
2022/08/07 05:44:13;;;;;;;0.70;0.50;;;18.60;1.00;;;;;;5141347;27;20451;-73
2022/08/07 05:46:42;;;;;;;0.77;0.50;;;18.70;1.00;;;;;;5140407;27;20475;-72
2022/08/07 05:49:11;;;;;;;1.50;0.57;;;18.70;1.00;;;;;;5140630;27;20494;-73
2022/08/07 05:51:38;;;;;;;0.60;0.50;;;18.60;1.00;;;;;;5140129;27;20444;-72
2022/08/07 05:54:05;;;;;;;0.60;0.50;;;18.30;1.00;;;;;;5140470;27;20517;-72
2022/08/07 05:56:35;;;;;;;1.00;0.60;;;18.30;1.00;;;;;;5140154;27;20784;-73
2022/08/07 05:59:03;;;;;;;0.70;0.50;;;18.20;1.00;;;;;;5139962;27;20452;-73
2022/08/07 06:01:32;;;;;;;0.90;0.60;;;18.20;1.00;;;;;;5139539;27;20528;-73
2022/08/07 06:04:01;;;;;;;0.73;0.60;;;18.60;1.00;;;;;;5139048;27;20460;-73
2022/08/07 06:06:29;;;;;;;0.90;0.50;;;18.80;1.00;;;;;;5138447;27;20447;-72
2022/08/07 06:08:57;;;;;;;0.83;0.50;;;18.80;1.00;;;;;;5139326;27;20838;-72
2022/08/07 06:11:24;;;;;;;0.87;0.70;;;19.00;1.00;;;;;;5138911;27;20491;-74
2022/08/07 06:13:52;;;;;;;0.80;0.60;;;19.10;1.00;;;;;;5138762;27;20806;-72
2022/08/07 06:16:22;;;;;;;1.10;0.60;;;19.00;1.00;;;;;;5138870;27;20483;-73
2022/08/07 06:18:49;;;;;;;0.80;0.60;;;19.00;1.00;;;;;;5139589;27;20476;-73
2022/08/07 06:21:18;;;;;;;0.80;0.53;;;18.80;1.00;;;;;;5138293;27;20530;-73
2022/08/07 06:23:46;;;;;;;1.00;0.70;;;18.70;1.00;;;;;;5139036;27;20448;-73
2022/08/07 06:26:14;;;;;;;1.13;0.60;;;18.70;1.00;;;;;;5139641;27;20485;-73
2022/08/07 06:28:52;;;;;;;1.73;0.70;;;18.80;1.00;;;;;;5139458;27;20714;-72
2022/08/07 06:31:19;;;;;;;0.87;0.60;;;18.80;1.00;;;;;;5138785;27;20479;-73
2022/08/07 06:33:46;;;;;;;0.80;0.53;;;18.80;1.00;;;;;;5137675;27;20495;-73
2022/08/07 06:36:13;;;;;;;1.30;1.03;;;19.00;1.00;;;;;;5139317;27;20737;-73
2022/08/07 06:38:41;;;;;;;1.00;0.73;;;19.20;1.00;;;;;;5139127;27;20791;-72
2022/08/07 06:41:15;;;;;;;0.73;0.60;;;19.30;1.00;;;;;;5139029;27;20531;-72
2022/08/07 06:43:45;;;;;;;0.83;0.70;;;19.30;1.00;;;;;;5139237;27;20467;-73
2022/08/07 06:46:12;;;;;;;2.03;0.80;;;19.40;1.00;;;;;;5139341;27;20444;-73
2022/08/07 06:48:39;;;;;;;1.43;0.70;;;19.30;1.00;;;;;;5138672;27;20440;-73
2022/08/07 06:51:09;;;;;;;1.13;0.70;;;19.20;1.00;;;;;;5138998;27;20464;-73
2022/08/07 06:53:39;;;;;;;1.10;0.60;;;19.10;1.00;;;;;;5138296;27;20490;-73
2022/08/07 06:56:07;;;;;;;1.03;0.70;;;19.20;1.00;;;;;;5139114;27;20475;-72
2022/08/07 06:58:37;;;;;;;0.70;0.60;;;19.30;1.00;;;;;;5138516;27;20519;-72
2022/08/07 07:01:08;;;;;;;0.90;0.70;;;19.40;1.00;;;;;;5138646;27;20448;-72
2022/08/07 07:03:39;;;;;;;1.50;0.70;;;19.50;1.00;;;;;;5138809;27;20809;-72
2022/08/07 07:06:07;;;;;;;0.70;0.60;;;19.70;1.00;;;;;;5139012;27;20444;-72
2022/08/07 07:08:35;;;;;;;1.13;0.70;;;19.80;1.00;;;;;;5138425;27;20452;-73
2022/08/07 07:11:02;;;;;;;0.87;0.70;;;19.90;1.00;;;;;;5136934;27;20975;-72
2022/08/07 07:13:34;;;;;;;1.20;0.60;;;19.90;1.00;;;;;;5136632;27;20503;-71
2022/08/07 07:16:07;;;;;;;0.93;0.67;;;19.90;1.00;;;;;;5136813;27;20918;-72
2022/08/07 07:18:39;;;;;;;0.70;0.60;;;20.00;1.00;;;;;;5136117;27;20532;-73
2022/08/07 07:21:10;;;;;;;2.30;1.83;;;20.20;1.00;;;;;;5136729;27;20471;-72
2022/08/07 07:23:37;;;;;;;0.97;0.80;;;20.30;1.00;;;;;;5136807;27;20452;-72
2022/08/07 07:26:07;;;;;;;0.70;0.60;;;20.20;1.00;;;;;;5137833;27;20964;-74
2022/08/07 07:28:38;;;;;;;1.20;0.63;;;20.10;1.00;;;;;;5137129;27;20524;-72
2022/08/07 07:31:12;;;;;;;0.80;0.67;;;20.10;1.00;;;;;;5137211;27;20471;-72
2022/08/07 07:33:41;;;;;;;0.70;0.57;;;20.10;1.00;;;;;;5137334;27;20498;-72
2022/08/07 07:36:09;;;;;;;0.80;0.60;;;20.20;1.00;;;;;;5137923;27;20468;-72
2022/08/07 07:38:36;;;;;;;1.50;0.60;;;20.40;1.00;;;;;;5129731;27;20487;-72
2022/08/07 07:41:06;;;;;;;0.80;0.60;;;20.60;1.00;;;;;;5117578;28;20812;-72
2022/08/07 07:43:36;;;;;;;0.70;0.60;;;20.80;1.00;;;;;;5116468;28;20547;-72
2022/08/07 07:46:04;;;;;;;0.80;0.60;;;20.90;1.00;;;;;;5115227;28;20449;-71
2022/08/07 07:48:34;;;;;;;0.87;0.67;;;21.00;1.00;;;;;;5115129;28;20457;-71
2022/08/07 07:51:02;;;;;;;0.80;0.50;;;21.20;1.00;;;;;;5115716;28;20448;-71
2022/08/07 07:53:31;;;;;;;0.80;0.60;;;21.10;1.00;;;;;;5095780;28;20666;-72
2022/08/07 07:55:59;;;;;;;0.77;0.50;;;21.10;1.00;;;;;;5095230;28;20506;-72
2022/08/07 07:58:30;;;;;;;3.13;0.50;;;21.20;1.00;;;;;;5113178;28;20538;-72
2022/08/07 08:00:58;;;;;;;1.07;0.53;;;21.40;1.00;;;;;;5115357;28;20515;-71
2022/08/07 08:03:26;;;;;;;0.70;0.50;;;21.50;1.00;;;;;;5115577;28;20468;-72
2022/08/07 08:05:55;;;;;;;0.70;0.50;;;21.60;1.00;;;;;;5115433;28;20483;-72
2022/08/07 08:08:24;;;;;;;0.70;0.40;;;21.90;1.00;;;;;;5115419;28;20441;-72
2022/08/07 08:10:52;;;;;;;0.60;0.50;;;22.10;1.00;;;;;;5114174;28;20453;-73
2022/08/07 08:13:22;;;;;;;0.40;0.30;;;22.20;1.00;;;;;;5133226;27;20507;-71
2022/08/07 08:15:50;;;;;;;0.77;0.53;;;22.20;1.00;;;;;;5137108;27;20456;-72
2022/08/07 08:18:17;;;;;;;0.43;0.30;;;22.20;1.00;;;;;;5136354;27;20487;-71
2022/08/07 08:20:46;;;;;;;1.07;0.40;;;22.30;1.00;;;;;;5136831;27;20546;-71
2022/08/07 08:28:52;;;;;;;0.50;0.40;;;22.60;1.00;;;;;;5136646;27;20757;-71
2022/08/07 08:31:24;;;;;;;0.60;0.40;;;22.80;1.00;;;;;;5137093;27;20753;-71
2022/08/07 08:33:54;;;;;;;0.50;0.40;;;23.00;1.00;;;;;;5136579;27;20440;-73
2022/08/07 08:36:27;;;;;;;0.80;0.50;;;23.00;1.00;;;;;;5134926;27;20470;-71
2022/08/07 08:38:58;;;;;;;0.43;0.30;;;23.10;1.00;;;;;;5117924;28;20511;-70
2022/08/07 08:41:36;;;;;;;0.50;0.40;;;23.00;1.00;;;;;;5116064;28;20451;-72
2022/08/07 08:44:08;;;;;;;0.53;0.40;;;23.10;1.00;;;;;;5115285;28;20822;-72
2022/08/07 08:46:43;;;;;;;0.67;0.40;;;23.20;1.00;;;;;;5116932;28;20445;-72
2022/08/07 08:49:18;;;;;;;0.50;0.40;;;23.30;1.00;;;;;;5134624;28;20447;-71
2022/08/07 08:51:56;;;;;;;0.70;0.40;;;23.30;1.00;;;;;;5135429;28;20447;-71
2022/08/07 08:54:32;;;;;;;0.50;0.37;;;23.20;1.00;;;;;;5134240;28;20887;-71
2022/08/07 08:57:03;;;;;;;0.70;0.37;;;23.30;1.00;;;;;;5135557;28;20497;-71
2022/08/07 08:59:39;;;;;;;0.50;0.40;;;23.30;1.00;;;;;;5135648;28;20943;-71
2022/08/07 09:02:15;;;;;;;0.50;0.40;;;23.40;1.00;;;;;;5135930;28;20479;-71
2022/08/07 09:04:47;;;;;;;0.50;0.40;;;23.50;1.00;;;;;;5136345;28;20469;-71
2022/08/07 09:07:19;;;;;;;0.50;0.40;;;23.50;1.00;;;;;;5134709;28;20441;-71
2022/08/07 09:09:57;;;;;;;0.50;0.30;;;23.60;1.00;;;;;;5136053;27;20443;-71
2022/08/07 09:12:46;;;;;;;0.50;0.30;;;23.60;1.00;;;;;;5136013;28;20964;-72
2022/08/07 09:15:34;;;;;;;0.50;0.40;;;23.70;1.00;;;;;;5135960;28;20459;-71
2022/08/07 09:18:33;;;;;;;0.60;0.40;;;23.90;1.00;;;;;;5131839;28;20949;-71
2022/08/07 09:21:24;;;;;;;0.37;0.27;;;24.10;1.00;;;;;;5117052;28;20508;-71
2022/08/07 09:23:59;;;;;;;0.40;0.30;;;23.90;1.00;;;;;;5095023;28;20516;-72
2022/08/07 09:26:38;;;;;;;0.40;0.37;;;23.90;1.00;;;;;;5094766;28;20469;-71
2022/08/07 09:29:17;;;;;;;0.40;0.30;;;24.00;1.00;;;;;;5103013;28;20525;-71
2022/08/07 09:31:56;;;;;;;0.87;0.40;;;24.10;1.00;;;;;;5115757;28;20472;-72
2022/08/07 09:34:27;;;;;;;0.50;0.30;;;24.20;1.00;;;;;;5114464;28;20480;-71
2022/08/07 09:37:01;;;;;;;0.40;0.30;;;24.40;1.00;;;;;;5115005;28;20433;-71
2022/08/07 09:39:43;;;;;;;0.50;0.33;;;24.50;1.00;;;;;;5128239;28;20510;-70
2022/08/07 09:42:23;;;;;;;0.73;0.40;;;24.60;1.00;;;;;;5136297;28;20444;-71
2022/08/07 09:45:01;;;;;;;0.40;0.30;;;24.60;1.00;;;;;;5134331;27;20443;-71
2022/08/07 09:47:37;;;;;;;0.50;0.30;;;24.70;1.00;;;;;;5095173;28;20497;-71
2022/08/07 09:50:11;;;;;;;0.60;0.40;;;24.80;1.00;;;;;;5095286;28;20817;-71
2022/08/07 09:52:46;;;;;;;0.50;0.30;;;24.90;1.00;;;;;;5095187;28;20456;-71
2022/08/07 09:55:18;;;;;;;0.40;0.30;;;24.80;1.00;;;;;;5095440;28;20965;-72
2022/08/07 09:58:13;;;;;;;0.50;0.30;;;25.00;1.00;;;;;;5096303;28;20763;-72
2022/08/07 10:00:56;;;;;;;0.50;0.30;;;25.20;1.00;;;;;;5117064;27;20452;-71
2022/08/07 10:03:40;;;;;;;0.40;0.30;;;25.00;1.00;;;;;;5119028;27;20483;-72
2022/08/07 10:06:38;;;;;;;0.60;0.30;;;25.10;1.00;;;;;;5119175;28;20472;-71
2022/08/07 10:09:37;;;;;;;0.30;0.20;;;25.20;1.00;;;;;;5117915;28;20487;-71
2022/08/07 10:12:22;;;;;;;0.50;0.30;;;25.00;1.00;;;;;;5129628;27;20471;-71
2022/08/07 10:15:24;;;;;;;0.40;0.30;;;25.30;1.00;;;;;;5138591;27;20475;-71
2022/08/07 10:18:19;;;;;;;0.50;0.30;;;25.60;1.00;;;;;;5123942;27;20577;-71
2022/08/07 10:21:02;;;;;;;0.40;0.30;;;25.70;1.00;;;;;;5136350;27;20542;-72
2022/08/07 10:23:57;;;;;;;0.50;0.30;;;25.70;1.00;;;;;;5138051;27;20447;-71
2022/08/07 10:26:32;;;;;;;0.50;0.30;;;26.20;1.00;;;;;;5135818;27;20544;-71
2022/08/07 10:29:16;;;;;;;0.33;0.20;;;26.40;99.90;;;;;;5139110;27;20942;-71
2022/08/07 10:31:53;;;;;;;0.80;0.30;;;26.60;99.90;;;;;;5137988;27;20474;-71
2022/08/07 10:34:40;;;;;;;0.40;0.20;;;26.70;99.90;;;;;;5137595;27;20451;-71
2022/08/07 10:37:22;;;;;;;0.50;0.27;;;26.50;99.90;;;;;;5138673;27;20500;-71
2022/08/07 10:40:01;;;;;;;0.40;0.30;;;26.30;99.90;;;;;;5138889;27;20530;-72
2022/08/07 10:42:35;;;;;;;0.50;0.30;;;26.50;99.90;;;;;;5138540;27;20443;-72
2022/08/07 10:45:11;;;;;;;0.40;0.30;;;27.00;99.90;;;;;;5137209;27;20486;-73
2022/08/07 10:47:49;;;;;;;0.40;0.30;;;27.50;99.90;;;;;;5136261;27;20483;-72
2022/08/07 10:50:23;;;;;;;0.40;0.30;;;27.80;99.90;;;;;;5137308;27;20455;-71
2022/08/07 10:52:59;;;;;;;0.57;0.30;;;28.00;99.90;;;;;;5121558;27;20444;-72
2022/08/07 10:55:31;;;;;;;0.40;0.20;;;28.10;99.90;;;;;;5116572;28;20456;-72
2022/08/07 10:58:13;;;;;;;0.40;0.30;;;28.20;99.90;;;;;;5117775;28;20532;-73
2022/08/07 11:00:50;;;;;;;0.40;0.30;;;28.40;99.90;;;;;;5118561;28;20453;-72
2022/08/07 11:03:25;;;;;;;0.67;0.30;;;28.40;99.90;;;;;;5117441;28;20536;-73
2022/08/07 11:06:07;;;;;;;0.33;0.27;;;28.60;99.90;;;;;;5116137;28;20514;-71
2022/08/07 11:08:40;;;;;;;3.27;0.40;;;28.80;99.90;;;;;;5114515;28;20805;-72
2022/08/07 11:11:12;;;;;;;0.40;0.20;;;28.60;99.90;;;;;;5115755;28;20521;-71
2022/08/07 11:13:46;;;;;;;0.40;0.23;;;28.50;99.90;;;;;;5113756;27;21090;-72
2022/08/07 11:16:19;;;;;;;1.20;0.80;;;28.90;99.90;;;;;;5116018;28;20767;-72
2022/08/07 11:18:49;;;;;;;0.50;0.30;;;29.30;99.90;;;;;;5116213;28;20488;-72
2022/08/07 11:21:28;;;;;;;0.80;0.70;;;29.10;99.90;;;;;;5136389;27;20555;-72
2022/08/07 11:24:03;;;;;;;0.60;0.30;;;28.80;99.90;;;;;;5117362;27;20444;-72
2022/08/07 11:26:35;;;;;;;0.40;0.30;;;28.80;99.90;;;;;;5129097;27;20464;-72
2022/08/07 11:29:06;;;;;;;0.50;0.37;;;29.00;99.90;;;;;;5136333;27;20483;-71
2022/08/07 11:31:41;;;;;;;0.43;0.20;;;28.60;99.90;;;;;;5136878;27;20440;-71
2022/08/07 11:34:17;;;;;;;0.40;0.20;;;28.50;99.90;;;;;;5126027;27;20638;-71
2022/08/07 11:36:58;;;;;;;0.30;0.20;;;28.40;99.90;;;;;;5135283;27;20497;-71
2022/08/07 11:39:55;;;;;;;0.50;0.40;;;28.20;99.90;;;;;;5132913;27;20754;-72
2022/08/07 11:42:27;;;;;;;0.40;0.30;;;28.40;99.90;;;;;;5125407;27;20447;-72
2022/08/07 11:45:03;;;;;;;0.50;0.30;;;28.90;99.90;;;;;;5134665;27;20945;-72
2022/08/07 11:47:41;;;;;;;0.50;0.40;;;29.00;99.90;;;;;;5129844;27;20475;-71
2022/08/07 11:50:22;;;;;;;0.47;0.40;;;29.00;99.90;;;;;;5136772;27;20491;-72
2022/08/07 11:53:14;;;;;;;0.30;0.20;;;29.50;99.90;;;;;;5137029;27;20439;-71
2022/08/07 11:55:58;;;;;;;0.50;0.30;;;29.60;99.90;;;;;;5116820;28;20467;-72
2022/08/07 11:58:34;;;;;;;0.50;0.30;;;29.60;99.90;;;;;;5121980;27;20983;-71
2022/08/07 12:01:12;;;;;;;0.40;0.20;;;29.40;99.90;;;;;;5137659;27;20557;-71
2022/08/07 12:04:01;;;;;;;0.53;0.40;;;29.30;99.90;;;;;;5116710;28;20909;-71
2022/08/07 12:06:48;;;;;;;0.30;0.20;;;29.20;99.90;;;;;;5118152;27;20538;-71
2022/08/07 12:09:22;;;;;;;0.30;0.20;;;29.20;99.90;;;;;;5125993;27;20626;-70
2022/08/07 12:11:56;;;;;;;0.40;0.20;;;28.60;99.90;;;;;;5116938;28;20478;-72
2022/08/07 12:14:27;;;;;;;0.40;0.30;;;28.80;99.90;;;;;;5108774;28;20452;-73
2022/08/07 12:16:57;;;;;;;0.50;0.33;;;29.00;99.90;;;;;;5116877;28;20453;-72
2022/08/07 12:19:33;;;;;;;0.50;0.30;;;29.00;99.90;;;;;;5115761;28;20535;-71
2022/08/07 12:22:08;;;;;;;0.40;0.30;;;29.50;99.90;;;;;;5115991;28;20521;-70
2022/08/07 12:25:51;;;;;;;2.00;0.20;;;29.80;99.90;;;;;;5115035;28;20445;-72
2022/08/07 12:27:39;;;;;;;0.40;0.20;;;29.40;99.90;;;;;;5114889;28;20493;-71
2022/08/07 12:30:08;;;;;;;0.83;0.30;;;29.50;99.90;;;;;;5115595;28;20748;-71
2022/08/07 12:32:42;;;;;;;0.40;0.20;;;29.60;99.90;;;;;;5114985;28;20449;-71
2022/08/07 12:35:12;;;;;;;0.57;0.30;;;29.80;99.90;;;;;;5113345;28;20433;-71
2022/08/07 12:37:41;;;;;;;0.43;0.30;;;30.40;99.90;;;;;;5115431;28;20513;-72
2022/08/07 12:40:12;;;;;;;0.40;0.30;;;30.50;99.90;;;;;;5116200;28;20523;-71
2022/08/07 12:42:41;;;;;;;0.40;0.30;;;30.30;99.90;;;;;;5116127;28;20871;-72
2022/08/07 12:45:12;;;;;;;0.40;0.30;;;30.60;99.90;;;;;;5116212;28;20527;-71
2022/08/07 12:47:46;;;;;;;0.40;0.20;;;30.70;99.90;;;;;;5115559;28;20484;-72
2022/08/07 12:50:20;;;;;;;1.33;0.20;;;30.90;99.90;;;;;;5116152;28;20698;-72
2022/08/07 12:52:51;;;;;;;0.50;0.20;;;30.60;99.90;;;;;;5115887;28;20746;-72
2022/08/07 12:55:25;;;;;;;0.30;0.20;;;30.50;99.90;;;;;;5115282;28;20449;-71
2022/08/07 12:57:53;;;;;;;1.57;0.30;;;30.50;99.90;;;;;;5115736;28;20448;-71
2022/08/07 13:00:27;;;;;;;0.50;0.30;;;30.20;99.90;;;;;;5114434;28;20575;-71
2022/08/07 13:03:10;;;;;;;0.73;0.50;;;30.30;99.90;;;;;;5111509;28;20680;-71
2022/08/07 13:05:58;;;;;;;0.60;0.30;;;30.90;99.90;;;;;;5111978;28;20449;-71
2022/08/07 13:08:38;;;;;;;0.30;0.27;;;30.70;99.90;;;;;;5113938;28;20532;-71
2022/08/07 13:11:30;;;;;;;1.07;0.30;;;30.40;99.90;;;;;;5113334;28;20448;-71
2022/08/07 13:14:07;;;;;;;1.93;0.57;;;30.50;99.90;;;;;;5113805;28;20441;-72
2022/08/07 13:16:41;;;;;;;0.40;0.30;;;30.80;99.90;;;;;;5114332;28;20814;-71
2022/08/07 13:19:20;;;;;;;3.50;0.30;;;31.10;99.90;;;;;;5115284;28;20569;-71
2022/08/07 13:21:56;;;;;;;0.40;0.30;;;31.10;99.90;;;;;;5122072;27;20523;-71
2022/08/07 13:24:27;;;;;;;0.60;0.30;;;30.90;99.90;;;;;;5136347;27;20547;-72